createdAt,value
2018-11-26T00:00:36.855Z,89.69
2018-11-26T00:03:12.126Z,89.79
2018-11-26T00:05:40.848Z,88.82
2018-11-26T00:08:10.371Z,89.05
2018-11-26T00:11:48.492Z,90.14
2018-11-26T00:14:16.699Z,90.28
2018-11-26T00:16:44.938Z,90.37
2018-11-26T00:19:13.146Z,89.51
2018-11-26T00:21:41.378Z,88.70
2018-11-26T00:24:09.608Z,89.42
2018-11-26T00:26:37.840Z,89.44
2018-11-26T00:29:06.135Z,90.06
2018-11-26T00:31:34.355Z,89.47
2018-11-26T00:34:02.591Z,89.31
2018-11-26T00:36:30.822Z,89.62
2018-11-26T00:38:59.034Z,89.60
2018-11-26T00:41:37.924Z,89.48
2018-11-26T00:44:06.823Z,89.33
2018-11-26T00:46:35.054Z,89.11
2018-11-26T00:49:03.331Z,89.47
2018-11-26T00:51:31.573Z,89.91
2018-11-26T00:53:59.810Z,90.76
2018-11-26T00:56:28.053Z,90.60
2018-11-26T00:58:56.301Z,89.01
2018-11-26T01:01:24.543Z,89.65
2018-11-26T01:03:52.822Z,89.69
2018-11-26T01:06:21.035Z,89.51
2018-11-26T01:08:49.255Z,90.06
2018-11-26T01:11:17.513Z,88.84
2018-11-26T01:13:49.188Z,88.75
2018-11-26T01:16:17.439Z,89.98
2018-11-26T01:18:45.655Z,88.82
2018-11-26T01:21:13.890Z,88.58
2018-11-26T01:23:42.110Z,88.71
2018-11-26T01:26:10.343Z,89.20
2018-11-26T01:28:38.550Z,88.61
2018-11-26T01:31:06.833Z,89.44
2018-11-26T01:33:35.139Z,89.24
2018-11-26T01:36:03.615Z,89.94
2018-11-26T01:38:31.837Z,89.37
2018-11-26T01:41:00.062Z,89.52
2018-11-26T01:43:28.304Z,89.85
2018-11-26T01:45:56.523Z,90.12
2018-11-26T01:48:24.743Z,88.94
2018-11-26T01:50:52.970Z,89.82
2018-11-26T01:53:21.195Z,89.01
2018-11-26T01:55:49.418Z,89.04
2018-11-26T01:58:17.659Z,88.59
2018-11-26T02:00:45.883Z,89.35
2018-11-26T02:03:14.103Z,89.25
2018-11-26T02:05:42.323Z,89.39
2018-11-26T02:08:10.556Z,88.73
2018-11-26T02:10:39.594Z,89.32
2018-11-26T02:13:07.838Z,89.47
2018-11-26T02:15:39.481Z,89.46
2018-11-26T02:18:08.508Z,89.44
2018-11-26T02:20:36.803Z,89.05
2018-11-26T02:23:05.070Z,89.31
2018-11-26T02:25:33.295Z,88.90
2018-11-26T02:28:01.503Z,89.46
2018-11-26T02:30:29.718Z,89.04
2018-11-26T02:32:57.967Z,89.45
2018-11-26T02:35:26.221Z,89.24
2018-11-26T02:37:54.634Z,89.57
2018-11-26T02:40:25.936Z,89.25
2018-11-26T02:42:54.165Z,88.32
2018-11-26T02:45:22.422Z,88.60
2018-11-26T02:47:50.635Z,89.23
2018-11-26T02:50:18.920Z,88.86
2018-11-26T02:52:47.142Z,89.12
2018-11-26T02:55:15.426Z,88.06
2018-11-26T02:57:43.635Z,89.08
2018-11-26T03:00:12.806Z,88.49
2018-11-26T03:02:41.065Z,87.69
2018-11-26T03:05:12.210Z,89.25
2018-11-26T03:07:40.475Z,89.79
2018-11-26T03:10:12.726Z,88.56
2018-11-26T03:12:40.952Z,88.54
2018-11-26T03:15:11.378Z,89.13
2018-11-26T03:17:39.966Z,88.89
2018-11-26T03:20:09.585Z,88.87
2018-11-26T03:22:37.819Z,89.39
2018-11-26T03:25:07.475Z,88.41
2018-11-26T03:27:35.708Z,89.21
2018-11-26T03:30:04.607Z,88.61
2018-11-26T03:32:32.855Z,88.02
2018-11-26T03:35:01.087Z,88.86
2018-11-26T03:37:29.316Z,88.71
2018-11-26T03:39:57.567Z,88.41
2018-11-26T03:42:25.803Z,88.28
2018-11-26T03:44:54.010Z,88.33
2018-11-26T03:47:22.223Z,88.10
2018-11-26T03:49:50.435Z,88.58
2018-11-26T03:52:18.636Z,88.55
2018-11-26T03:54:46.863Z,88.27
2018-11-26T03:57:15.211Z,88.70
2018-11-26T03:59:43.431Z,88.40
2018-11-26T04:02:11.852Z,88.58
2018-11-26T04:04:40.180Z,87.89
2018-11-26T04:07:08.415Z,87.16
2018-11-26T04:09:36.641Z,88.64
2018-11-26T04:12:04.974Z,88.19
2018-11-26T04:14:33.183Z,89.09
2018-11-26T04:17:04.836Z,88.59
2018-11-26T04:19:33.207Z,88.36
2018-11-26T04:22:01.448Z,88.13
2018-11-26T04:24:29.661Z,88.67
2018-11-26T04:26:58.576Z,88.75
2018-11-26T04:29:26.123Z,89.02
2018-11-26T04:31:54.365Z,88.79
2018-11-26T04:34:22.579Z,88.13
2018-11-26T04:36:50.795Z,90.19
2018-11-26T04:39:19.016Z,90.07
2018-11-26T04:41:47.235Z,89.91
2018-11-26T04:44:15.475Z,90.78
2018-11-26T04:46:43.726Z,90.34
2018-11-26T04:49:15.587Z,90.14
2018-11-26T04:51:43.812Z,89.95
2018-11-26T04:54:12.051Z,89.85
2018-11-26T04:56:40.298Z,89.94
2018-11-26T04:59:08.515Z,90.17
2018-11-26T05:01:36.816Z,90.90
2018-11-26T05:04:05.327Z,90.60
2018-11-26T05:06:33.590Z,90.90
2018-11-26T05:09:01.787Z,90.42
2018-11-26T05:11:30.004Z,91.56
2018-11-26T05:13:58.209Z,90.40
2018-11-26T05:16:46.582Z,89.82
2018-11-26T05:19:14.824Z,91.01
2018-11-26T05:21:43.061Z,91.30
2018-11-26T05:24:11.236Z,92.39
2018-11-26T05:26:39.455Z,91.11
2018-11-26T05:29:07.695Z,91.05
2018-11-26T05:31:35.937Z,90.69
2018-11-26T05:34:04.190Z,91.28
2018-11-26T05:36:56.662Z,90.48
2018-11-26T05:39:24.890Z,90.65
2018-11-26T05:41:53.145Z,91.42
2018-11-26T05:44:21.387Z,90.80
2018-11-26T05:46:49.604Z,91.66
2018-11-26T05:49:17.835Z,90.30
2018-11-26T05:51:46.107Z,91.08
2018-11-26T05:54:14.334Z,91.72
2018-11-26T05:56:42.627Z,91.27
2018-11-26T05:59:18.724Z,91.19
2018-11-26T06:01:46.962Z,91.82
2018-11-26T06:04:15.211Z,91.74
2018-11-26T06:06:43.451Z,91.26
2018-11-26T06:09:11.822Z,91.85
2018-11-26T06:11:40.510Z,91.91
2018-11-26T06:14:08.775Z,90.75
2018-11-26T06:16:37.457Z,91.05
2018-11-26T06:19:05.904Z,90.42
2018-11-26T06:21:46.603Z,90.66
2018-11-26T06:24:33.418Z,90.71
2018-11-26T06:27:01.804Z,91.22
2018-11-26T06:29:30.043Z,91.34
2018-11-26T06:32:00.311Z,89.65
2018-11-26T06:34:28.559Z,90.72
2018-11-26T06:36:56.835Z,89.91
2018-11-26T06:39:25.055Z,88.91
2018-11-26T06:41:53.274Z,90.25
2018-11-26T06:44:21.479Z,90.69
2018-11-26T06:46:49.690Z,90.66
2018-11-26T06:49:17.926Z,90.53
2018-11-26T06:51:46.164Z,91.06
2018-11-26T06:54:14.365Z,90.06
2018-11-26T06:56:42.607Z,90.16
2018-11-26T06:59:10.827Z,90.60
2018-11-26T07:01:39.076Z,90.09
2018-11-26T07:04:07.638Z,90.51
2018-11-26T07:06:35.880Z,89.54
2018-11-26T07:09:05.075Z,89.58
2018-11-26T07:11:33.305Z,89.65
2018-11-26T07:14:01.514Z,89.25
2018-11-26T07:16:29.741Z,89.03
2018-11-26T07:18:57.968Z,90.20
2018-11-26T07:21:26.186Z,88.80
2018-11-26T07:23:54.416Z,89.16
2018-11-26T07:26:22.640Z,88.98
2018-11-26T07:28:50.865Z,88.40
2018-11-26T07:31:19.099Z,89.00
2018-11-26T07:33:47.385Z,88.45
2018-11-26T07:36:15.615Z,88.24
2018-11-26T07:38:43.827Z,88.59
2018-11-26T07:41:12.089Z,88.11
2018-11-26T07:43:40.307Z,88.58
2018-11-26T07:46:08.547Z,89.29
2018-11-26T07:48:36.798Z,87.69
2018-11-26T07:51:05.058Z,88.52
2018-11-26T07:53:33.274Z,88.00
2018-11-26T07:56:01.491Z,88.30
2018-11-26T07:58:29.712Z,88.18
2018-11-26T08:00:57.947Z,87.51
2018-11-26T08:03:26.195Z,87.70
2018-11-26T08:05:54.436Z,87.51
2018-11-26T08:08:22.665Z,87.87
2018-11-26T08:10:50.882Z,87.38
2018-11-26T08:13:19.107Z,87.86
2018-11-26T08:15:47.343Z,89.31
2018-11-26T08:18:15.563Z,87.30
2018-11-26T08:20:43.792Z,87.79
2018-11-26T08:23:12.025Z,87.34
2018-11-26T08:25:40.259Z,87.70
2018-11-26T08:28:08.512Z,88.41
2018-11-26T08:30:36.746Z,88.24
2018-11-26T08:33:05.312Z,88.50
2018-11-26T08:35:33.586Z,88.63
2018-11-26T08:38:07.641Z,88.99
2018-11-26T08:40:41.160Z,88.16
2018-11-26T08:43:14.723Z,87.98
2018-11-26T08:45:49.560Z,88.10
2018-11-26T08:48:23.045Z,88.06
2018-11-26T08:50:51.312Z,88.88
2018-11-26T08:53:19.539Z,88.70
2018-11-26T08:55:47.780Z,88.64
2018-11-26T08:58:16.003Z,88.29
2018-11-26T09:00:44.223Z,88.62
2018-11-26T09:03:17.832Z,89.06
2018-11-26T09:05:46.333Z,89.58
2018-11-26T09:08:14.951Z,89.06
2018-11-26T09:10:43.183Z,89.54
2018-11-26T09:13:11.491Z,87.86
2018-11-26T09:15:39.706Z,88.23
2018-11-26T09:18:07.963Z,87.40
2018-11-26T09:20:36.173Z,88.21
2018-11-26T09:23:04.611Z,87.64
2018-11-26T09:25:32.861Z,87.97
2018-11-26T09:28:01.108Z,87.54
2018-11-26T09:30:29.327Z,87.97
2018-11-26T09:32:57.570Z,87.85
2018-11-26T09:35:25.855Z,88.94
2018-11-26T09:37:54.083Z,88.93
2018-11-26T09:40:22.331Z,88.70
2018-11-26T09:42:50.565Z,87.91
2018-11-26T09:45:18.974Z,88.32
2018-11-26T09:47:47.181Z,87.92
2018-11-26T09:50:19.045Z,87.94
2018-11-26T09:52:47.271Z,88.02
2018-11-26T09:55:16.518Z,87.11
2018-11-26T09:57:44.761Z,86.83
2018-11-26T10:00:16.759Z,87.54
2018-11-26T10:02:46.343Z,86.62
2018-11-26T10:05:17.291Z,87.24
2018-11-26T10:07:45.520Z,86.51
2018-11-26T10:10:13.862Z,87.10
2018-11-26T10:12:42.890Z,87.20
2018-11-26T10:15:16.540Z,87.15
2018-11-26T10:17:44.763Z,86.08
2018-11-26T10:20:13.066Z,86.95
2018-11-26T10:22:41.726Z,86.81
2018-11-26T10:25:11.393Z,86.59
2018-11-26T10:27:39.642Z,86.63
2018-11-26T10:30:09.874Z,87.07
2018-11-26T10:35:30.681Z,86.50
2018-11-26T10:37:58.903Z,85.64
2018-11-26T10:40:27.872Z,85.54
2018-11-26T10:42:56.109Z,86.39
2018-11-26T10:45:25.046Z,85.80
2018-11-26T10:47:53.291Z,85.95
2018-11-26T10:50:23.481Z,86.03
2018-11-26T10:52:54.049Z,86.13
2018-11-26T10:55:28.678Z,85.45
2018-11-26T10:57:56.915Z,86.94
2018-11-26T11:00:30.491Z,85.47
2018-11-26T11:02:58.727Z,86.40
2018-11-26T11:05:27.018Z,86.19
2018-11-26T11:07:56.319Z,85.59
2018-11-26T11:10:27.892Z,84.91
2018-11-26T11:15:48.718Z,86.46
2018-11-26T11:21:28.702Z,85.66
2018-11-26T11:24:02.460Z,86.16
2018-11-26T11:26:36.282Z,85.65
2018-11-26T11:29:22.824Z,85.88
2018-11-26T11:31:58.150Z,86.12
2018-11-26T11:34:30.393Z,85.84
2018-11-26T11:37:04.490Z,85.62
2018-11-26T11:39:33.820Z,85.75
2018-11-26T11:42:14.190Z,85.39
2018-11-26T11:47:47.637Z,85.44
2018-11-26T11:50:37.883Z,85.85
2018-11-26T11:53:07.348Z,85.86
2018-11-26T11:55:40.455Z,85.92
2018-11-26T11:58:20.611Z,85.77
2018-11-26T12:00:56.802Z,85.60
2018-11-26T12:03:39.136Z,86.17
2018-11-26T12:06:09.412Z,85.77
2018-11-26T12:08:40.839Z,85.63
2018-11-26T12:11:11.073Z,85.60
2018-11-26T12:13:42.853Z,85.80
2018-11-26T12:16:11.205Z,85.57
2018-11-26T12:18:54.078Z,85.86
2018-11-26T12:21:22.327Z,85.82
2018-11-26T12:23:50.592Z,85.00
2018-11-26T12:26:18.861Z,85.47
2018-11-26T12:28:47.165Z,84.34
2018-11-26T12:31:15.424Z,84.71
2018-11-26T12:33:43.681Z,84.75
2018-11-26T12:36:11.905Z,84.54
2018-11-26T12:38:40.167Z,85.17
2018-11-26T12:41:08.649Z,85.21
2018-11-26T12:43:36.909Z,86.03
2018-11-26T12:46:05.188Z,85.17
2018-11-26T12:48:33.421Z,85.60
2018-11-26T12:51:01.721Z,85.00
2018-11-26T12:53:30.004Z,85.02
2018-11-26T12:55:58.239Z,85.80
2018-11-26T12:58:26.466Z,85.69
2018-11-26T13:00:54.754Z,85.64
2018-11-26T13:03:23.000Z,85.38
2018-11-26T13:05:51.252Z,85.91
2018-11-26T13:08:19.484Z,86.70
2018-11-26T13:10:47.732Z,85.94
2018-11-26T13:13:15.948Z,86.47
2018-11-26T13:15:44.167Z,86.33
2018-11-26T13:18:12.392Z,86.57
2018-11-26T13:20:40.884Z,86.70
2018-11-26T13:23:09.868Z,86.65
2018-11-26T13:25:41.798Z,86.52
2018-11-26T13:28:14.211Z,86.60
2018-11-26T13:30:45.366Z,86.55
2018-11-26T13:33:15.108Z,85.87
2018-11-26T13:35:43.759Z,86.11
2018-11-26T13:38:22.258Z,86.47
2018-11-26T13:40:50.501Z,86.88
2018-11-26T13:43:18.761Z,86.71
2018-11-26T13:45:48.256Z,86.28
2018-11-26T13:48:17.555Z,86.08
2018-11-26T13:50:55.747Z,84.92
2018-11-26T13:53:24.017Z,86.13
2018-11-26T13:55:52.276Z,85.99
2018-11-26T13:58:20.512Z,85.73
2018-11-26T14:00:48.800Z,85.33
2018-11-26T14:03:18.135Z,85.02
2018-11-26T14:05:46.382Z,85.15
2018-11-26T14:08:14.619Z,85.90
2018-11-26T14:10:42.869Z,86.05
2018-11-26T14:13:12.925Z,85.68
2018-11-26T14:15:41.177Z,85.43
2018-11-26T14:20:44.860Z,85.96
2018-11-26T14:23:19.401Z,85.31
2018-11-26T14:25:47.625Z,85.36
2018-11-26T14:28:15.859Z,85.62
2018-11-26T14:30:44.108Z,85.28
2018-11-26T14:33:12.383Z,85.77
2018-11-26T14:35:40.641Z,85.42
2018-11-26T14:38:09.666Z,85.08
2018-11-26T14:40:41.454Z,85.01
2018-11-26T14:43:09.774Z,85.30
2018-11-26T14:45:38.016Z,85.30
2018-11-26T14:48:06.751Z,84.08
2018-11-26T14:50:34.975Z,84.92
2018-11-26T14:53:05.227Z,85.31
2018-11-26T14:55:35.212Z,84.59
2018-11-26T14:58:03.515Z,85.08
2018-11-26T15:00:31.806Z,84.69
2018-11-26T15:03:00.035Z,85.59
2018-11-26T15:05:28.295Z,84.41
2018-11-26T15:07:56.569Z,84.74
2018-11-26T15:10:25.438Z,85.46
2018-11-26T15:12:53.675Z,85.10
2018-11-26T15:15:23.700Z,84.65
2018-11-26T15:17:51.962Z,84.37
2018-11-26T15:20:22.365Z,85.22
2018-11-26T15:22:51.183Z,84.09
2018-11-26T15:25:21.591Z,84.83
2018-11-26T15:27:50.259Z,85.17
2018-11-26T15:30:30.759Z,85.38
2018-11-26T15:32:59.067Z,84.00
2018-11-26T15:35:35.664Z,83.59
2018-11-26T15:40:57.095Z,84.94
2018-11-26T15:43:25.316Z,84.72
2018-11-26T15:45:53.548Z,85.45
2018-11-26T15:48:21.764Z,85.07
2018-11-26T15:50:50.239Z,84.42
2018-11-26T15:53:18.447Z,85.00
2018-11-26T15:55:46.689Z,84.90
2018-11-26T15:58:14.941Z,84.36
2018-11-26T16:00:43.185Z,84.27
2018-11-26T16:03:11.485Z,84.10
2018-11-26T16:05:39.700Z,84.36
2018-11-26T16:08:09.580Z,83.44
2018-11-26T16:10:37.792Z,84.38
2018-11-26T16:13:07.449Z,84.56
2018-11-26T16:15:37.464Z,84.88
2018-11-26T16:18:10.364Z,84.47
2018-11-26T16:20:41.798Z,85.43
2018-11-26T16:23:10.853Z,85.37
2018-11-26T16:25:41.440Z,85.04
2018-11-26T16:28:10.417Z,84.93
2018-11-26T16:30:38.709Z,84.83
2018-11-26T16:33:07.695Z,85.09
2018-11-26T16:35:38.349Z,84.12
2018-11-26T16:38:10.804Z,84.91
2018-11-26T16:40:39.068Z,85.44
2018-11-26T16:43:07.974Z,85.27
2018-11-26T16:45:36.205Z,85.51
2018-11-26T16:48:08.110Z,85.09
2018-11-26T16:50:48.268Z,84.15
2018-11-26T16:53:19.476Z,84.66
2018-11-26T16:55:45.847Z,83.89
2018-11-26T16:58:14.351Z,83.70
2018-11-26T17:00:42.608Z,84.57
2018-11-26T17:03:10.845Z,84.49
2018-11-26T17:05:40.397Z,84.04
2018-11-26T17:08:10.028Z,83.75
2018-11-26T17:10:38.241Z,83.73
2018-11-26T17:13:06.781Z,83.25
2018-11-26T17:15:36.069Z,83.37
2018-11-26T17:18:22.402Z,83.26
2018-11-26T17:20:56.349Z,82.63
2018-11-26T17:23:24.572Z,82.28
2018-11-26T17:25:52.872Z,82.24
2018-11-26T17:28:21.083Z,81.68
2018-11-26T17:30:50.380Z,81.78
2018-11-26T17:33:18.625Z,81.57
2018-11-26T17:35:52.876Z,81.79
2018-11-26T17:38:37.706Z,81.84
2018-11-26T17:41:11.655Z,81.73
2018-11-26T17:43:39.967Z,82.25
2018-11-26T17:46:08.296Z,82.04
2018-11-26T17:48:36.524Z,81.79
2018-11-26T17:51:06.820Z,81.86
2018-11-26T17:53:35.071Z,80.77
2018-11-26T17:56:03.296Z,81.36
2018-11-26T17:58:32.555Z,80.20
2018-11-26T18:01:16.089Z,81.25
2018-11-26T18:03:48.255Z,81.29
2018-11-26T18:06:16.629Z,81.67
2018-11-26T18:08:44.921Z,80.83
2018-11-26T18:11:13.143Z,81.27
2018-11-26T18:13:41.361Z,81.03
2018-11-26T18:16:09.684Z,81.62
2018-11-26T18:21:33.815Z,81.82
2018-11-26T18:24:09.072Z,81.69
2018-11-26T18:26:37.340Z,81.49
2018-11-26T18:29:08.497Z,82.25
2018-11-26T18:31:36.752Z,81.75
2018-11-26T18:34:05.137Z,80.61
2018-11-26T18:36:41.753Z,80.57
2018-11-26T18:39:16.162Z,79.50
2018-11-26T18:41:44.394Z,80.31
2018-11-26T18:44:13.735Z,79.33
2018-11-26T18:46:46.800Z,80.31
2018-11-26T18:49:34.459Z,79.62
2018-11-26T18:52:03.731Z,80.08
2018-11-26T18:54:38.972Z,78.65
2018-11-26T18:57:07.290Z,79.47
2018-11-26T18:59:35.688Z,79.28
2018-11-26T19:02:06.005Z,78.91
2018-11-26T19:04:34.265Z,78.35
2018-11-26T19:07:04.577Z,79.21
2018-11-26T19:09:32.800Z,79.34
2018-11-26T19:12:06.636Z,78.80
2018-11-26T19:14:34.912Z,79.02
2018-11-26T19:17:03.136Z,78.61
2018-11-26T19:19:31.336Z,77.91
2018-11-26T19:21:59.593Z,77.38
2018-11-26T19:24:28.556Z,77.87
2018-11-26T19:27:17.166Z,78.22
2018-11-26T19:29:48.706Z,78.06
2018-11-26T19:32:16.979Z,78.09
2018-11-26T19:34:45.252Z,77.21
2018-11-26T19:37:15.594Z,78.72
2018-11-26T19:39:44.888Z,79.18
2018-11-26T19:42:13.184Z,78.49
2018-11-26T19:44:47.577Z,77.04
2018-11-26T19:47:15.869Z,77.86
2018-11-26T19:49:44.089Z,77.62
2018-11-26T19:52:12.410Z,77.53
2018-11-26T19:54:40.835Z,78.31
2018-11-26T19:57:09.085Z,77.72
2018-11-26T19:59:37.344Z,78.07
2018-11-26T20:02:07.735Z,78.20
2018-11-26T20:04:41.144Z,78.99
2018-11-26T20:07:11.376Z,79.69
2018-11-26T20:09:39.585Z,79.97
2018-11-26T20:12:07.838Z,79.66
2018-11-26T20:14:36.754Z,80.09
2018-11-26T20:17:07.126Z,80.72
2018-11-26T20:19:40.927Z,80.60
2018-11-26T20:22:09.218Z,79.98
2018-11-26T20:24:37.771Z,80.95
2018-11-26T20:27:06.248Z,81.17
2018-11-26T20:29:36.178Z,81.30
2018-11-26T20:32:04.566Z,81.29
2018-11-26T20:34:32.842Z,81.26
2018-11-26T20:37:01.187Z,81.46
2018-11-26T20:39:29.509Z,82.28
2018-11-26T20:42:02.094Z,82.13
2018-11-26T20:44:35.093Z,81.87
2018-11-26T20:47:09.084Z,82.08
2018-11-26T20:49:37.284Z,81.72
2018-11-26T20:52:05.822Z,82.36
2018-11-26T20:54:34.036Z,81.85
2018-11-26T20:57:02.508Z,83.42
2018-11-26T20:59:30.790Z,83.86
2018-11-26T21:01:59.204Z,82.95
2018-11-26T21:04:27.460Z,82.71
2018-11-26T21:06:55.735Z,82.64
2018-11-26T21:09:23.981Z,82.76
2018-11-26T21:11:52.229Z,82.30
2018-11-26T21:17:15.793Z,83.57
2018-11-26T21:19:44.063Z,83.78
2018-11-26T21:22:12.287Z,83.04
2018-11-26T21:24:40.588Z,83.62
2018-11-26T21:27:15.329Z,83.36
2018-11-26T21:29:44.623Z,82.42
2018-11-26T21:32:12.908Z,82.62
2018-11-26T21:34:41.165Z,82.74
2018-11-26T21:37:09.441Z,82.53
2018-11-26T21:39:37.712Z,83.48
2018-11-26T21:42:11.009Z,83.53
2018-11-26T21:44:39.258Z,83.67
2018-11-26T21:47:07.487Z,82.43
2018-11-26T21:49:35.760Z,82.63
2018-11-26T21:52:05.095Z,82.38
2018-11-26T21:54:33.407Z,82.29
2018-11-26T21:57:05.248Z,83.58
2018-11-26T21:59:33.555Z,83.57
2018-11-26T22:02:01.816Z,82.90
2018-11-26T22:04:30.038Z,83.21
2018-11-26T22:06:58.279Z,83.34
2018-11-26T22:09:26.500Z,84.11
2018-11-26T22:11:55.776Z,83.53
2018-11-26T22:14:26.078Z,83.20
2018-11-26T22:16:54.337Z,83.66
2018-11-26T22:19:24.578Z,83.56
2018-11-26T22:21:52.809Z,84.01
2018-11-26T22:24:26.848Z,84.28
2018-11-26T22:26:55.114Z,84.39
2018-11-26T22:29:23.465Z,83.88
2018-11-26T22:31:51.708Z,84.21
2018-11-26T22:34:24.677Z,84.41
2018-11-26T22:36:52.963Z,85.11
2018-11-26T22:39:21.200Z,84.37
2018-11-26T22:41:49.429Z,83.42
2018-11-26T22:44:17.649Z,83.72
2018-11-26T22:46:45.866Z,83.63
2018-11-26T22:49:18.021Z,84.51
2018-11-26T22:51:51.248Z,83.63
2018-11-26T22:54:14.476Z,84.21
2018-11-26T22:56:44.789Z,83.53
2018-11-26T22:59:13.069Z,84.76
2018-11-26T23:01:42.355Z,84.14
2018-11-26T23:04:10.641Z,83.48
2018-11-26T23:06:38.856Z,83.47
2018-11-26T23:09:08.348Z,82.94
2018-11-26T23:11:36.609Z,84.07
2018-11-26T23:14:04.997Z,83.49
2018-11-26T23:16:33.277Z,84.40
2018-11-26T23:19:01.524Z,83.68
2018-11-26T23:21:29.760Z,84.66
2018-11-26T23:23:58.096Z,84.47
2018-11-26T23:26:26.324Z,84.59
2018-11-26T23:28:54.569Z,84.64
2018-11-26T23:31:22.852Z,83.01
2018-11-26T23:33:51.211Z,84.27
2018-11-26T23:36:19.420Z,84.27
2018-11-26T23:38:47.619Z,84.06
2018-11-26T23:41:15.911Z,83.89
2018-11-26T23:43:44.208Z,83.82
2018-11-26T23:46:13.487Z,83.41
2018-11-26T23:48:42.781Z,83.42
2018-11-26T23:51:11.011Z,84.65
2018-11-26T23:53:41.309Z,84.13
2018-11-26T23:56:09.536Z,83.97
2018-11-26T23:58:45.613Z,83.56
